Sunday, August 19, 2018, 12:28 AM GMT
Back to Local

CYGK, Kingston, Ont.

Location: , , Canada Lat: 44.217
Local Time: 12:28 AM GMT ( 0:28 GMT) Lon: -76.6
Time Zone: GMT Elev: 305 ft

Show me the last for .
Show Decoded

2018-08-19 00:00 METAR CYGK 190000Z 06004KT 15SM FEW040 BKN200 21/16 A2994 RMK CU1CS5 SLP141
                 DENSITY ALT 1100FT =
2018-08-18 23:00 METAR CYGK 182300Z 04005KT 360V070 15SM FEW040 OVC210 23/16 A2993 RMK CU1CS7
                 SLP138 DENSITY ALT 1300FT =
2018-08-18 22:00 METAR CYGK 182200Z 02009KT 15SM FEW040 OVC180 23/16 A2992 RMK CU2CS6 SLP135
                 DENSITY ALT 1400FT =
2018-08-18 21:00 METAR CYGK 182100Z 02009G17KT 15SM SCT040 OVC200 24/16 A2992 RMK CU3CS5 SLP132
                 DENSITY ALT 1400FT =
2018-08-18 20:00 METAR CYGK 182000Z 02009KT 15SM SCT040 OVC220 24/16 A2992 RMK CU3CS5 SLP133
                 DENSITY ALT 1400FT =
2018-08-18 19:00 METAR CYGK 181900Z 01011KT 15SM FEW038 OVC220 24/16 A2992 RMK CU2CS6 SLP132
                 DENSITY ALT 1400FT =
2018-08-18 18:00 METAR CYGK 181800Z 03010KT 15SM FEW030 OVC220 23/17 A2992 RMK CU1CS7 SLP134
                 DENSITY ALT 1300FT =
2018-08-18 17:00 METAR CYGK 181700Z 03010G18KT 15SM SCT030 OVC220 23/16 A2993 RMK CU3CS5 SLP135
                 DENSITY ALT 1300FT =
2018-08-18 16:00 METAR CYGK 181600Z 04011KT 360V070 15SM FEW020 OVC220 22/16 A2994 RMK CU2CS6
                 SLP138 DENSITY ALT 1200FT =
2018-08-18 15:00 METAR CYGK 181500Z 04009KT 15SM SCT020 BKN220 21/16 A2994 RMK CU3CS3 SLP138
                 DENSITY ALT 1000FT =
2018-08-18 14:00 METAR CYGK 181400Z 02009G16KT 15SM BKN018 BKN250 19/16 A2993 RMK CU6CI1 SLP137
                 DENSITY ALT 900FT =
2018-08-18 13:00 METAR CYGK 181300Z 02009KT 15SM FEW020 BKN220 17/15 A2993 RMK SC2CI4 SLP136
                 DENSITY ALT 700FT =
2018-08-18 12:00 METAR CYGK 181200Z 03010KT 15SM FEW015 SCT130 BKN220 17/15 A2993 RMK SC2AC1CI4
                 SLP138 DENSITY ALT 600FT =
2018-08-18 11:00 METAR CYGK 181100Z 01007KT 15SM BKN015 BKN220 17/15 A2992 RMK SC6CI1 SLP133
                 DENSITY ALT 600FT =
2018-08-18 10:00 METAR CYGK 181000Z 36005KT 15SM BKN020 BKN200 16/16 A2992 RMK SC5CI1 SLP132
                 DENSITY ALT 600FT =
2018-08-18 03:00 METAR CYGK 180300Z 01005KT 10SM -SHRA FEW030 OVC070 20/19 A2988 RMK CU2AC6 OCNL
                 LTGIC DIST S LAST STFD OBS/NEXT 181000 UTC SLP118 DENSITY ALT 1100FT =
2018-08-18 02:00 METAR CYGK 180200Z 03010KT 10SM -SHRA FEW020 OVC050 21/19 A2987 RMK CU2SC6 OCNL
                 LTGIC DIST S SLP115 DENSITY ALT 1100FT =
2018-08-18 01:00 METAR CYGK 180100Z 01010KT 10SM -SHRA FEW020 OVC031 21/20 A2987 RMK CU2SC6
                 SLP116 DENSITY ALT 1200FT =

Support USWX by starting your Amazon purchase here.